Aviation Digital Data Service (ADDS)

Output produced by METARs form (1221 UTC 16 August 2022)
found at http://aviationweather.gov/metar/data/
 
KSNS 161153Z AUTO 00000KT 1/2SM R31/2000V3000FT FG VV002 14/13 A2982 RMK AO2 SLP107 T01390128 10144 20133 56004 TSNO
KSNS 161139Z 1612/1712 VRB03KT 1/2SM FG VV002 
     FM161500 VRB03KT 5SM BR OVC004 
     FM161700 VRB04KT P6SM FEW010 
     FM162100 29014KT P6SM SKC 
     FM170300 32007KT P6SM BKN005 
     FM170500 32005KT 1SM BR OVC003
       
KMRY 161154Z AUTO 00000KT 1/4SM R10R/1600V3000FT FG VV001 13/12 A2983 RMK AO2 SLP114 T01280117 10133 20122 55002
KMRY 161139Z 1612/1712 VRB03KT 1/2SM FG OVC002 
     TEMPO 1612/1616 1/4SM FG VV001 
     FM161600 VRB04KT 6SM BR BKN005 
     FM161730 32006KT P6SM FEW010 
     FM161900 29011KT P6SM SKC 
     FM170300 VRB04KT P6SM BKN005 
     FM170600 VRB03KT 1SM BR OVC003
       
KSJC 161153Z AUTO 25003KT 10SM CLR 17/14 A2980 RMK AO2 SLP090 7//// T01720139 10222 20172 55001
KSJC 161139Z 1612/1712 VRB03KT P6SM SKC 
     FM162000 32010KT P6SM SKC 
     FM170500 32005KT P6SM SKC 
     FM170800 VRB03KT P6SM SKC
       
KSFO 161156Z 28009KT 10SM FEW008 14/11 A2980 RMK AO2 SLP090 T01440111 10161 20144 56002
KSFO 161139Z 1612/1718 30007KT P6SM FEW008 
     FM161500 VRB03KT P6SM FEW008 
     FM162100 29015G19KT P6SM SKC 
     FM170400 29011KT P6SM SKC 
     FM171000 30006KT P6SM FEW006
       
KLVK 161153Z AUTO 00000KT 10SM CLR 17/08 A2979 RMK AO2 SLP082 T01720078 10239 20161 56001
KLVK 161139Z 1612/1712 VRB03KT P6SM SKC 
     FM161900 29006KT P6SM SKC 
     FM162300 29014KT P6SM SKC 
     FM170400 28006KT P6SM SKC 
     FM170800 VRB03KT P6SM SKC
       
KMCE 161153Z AUTO 00000KT 10SM CLR 19/12 A2975 RMK AO2 SLP073 T01940122 10256 20183 55002
KMCE 161120Z 1612/1712 32006KT P6SM SKC